Wednesday, December 19, 2018, 1:01 AM EST
Back to Local

KEWB, New Bedford Regional Airport

Location: New Bedford, MA, United States Lat: 41.683
Local Time: 1:01 AM EST ( 6:01 GMT) Lon: -70.967
Time Zone: US/Eastern Elev: 78 ft

Show me the last for .
Show Decoded

2018-12-18 23:53 METAR KEWB 190453Z AUTO 29008KT 10SM CLR M05/M11 A3003 RMK AO2 SLP169 T10501106
                 400391050 =
2018-12-18 22:53 METAR KEWB 190353Z AUTO 30008KT 10SM CLR M04/M11 A3002 RMK AO2 SLP166 T10441106
                 =
2018-12-18 21:53 METAR KEWB 190253Z 31006KT 10SM CLR M04/M11 A3003 RMK AO2 SLP170 LAST AUGMENTED
                 OBS T10391106 51007 =
2018-12-18 20:53 METAR KEWB 190153Z 30008KT 10SM CLR M03/M11 A3002 RMK AO2 SLP168 T10331106 =
2018-12-18 19:53 METAR KEWB 190053Z 30006KT 10SM CLR M03/M11 A3002 RMK AO2 SLP166 T10281106 =
2018-12-18 18:53 METAR KEWB 182353Z 31007G14KT 10SM CLR M02/M11 A3001 RMK AO2 SLP162 T10221106
                 10011 21022 51030 =
2018-12-18 17:53 METAR KEWB 182253Z 30010G18KT 10SM CLR M02/M11 A2999 RMK AO2 SLP154 T10171106 =
2018-12-18 16:53 METAR KEWB 182153Z 30007KT 10SM CLR M02/M10 A2995 RMK AO2 SLP141 T10171100 =
2018-12-18 15:53 METAR KEWB 182053Z 32009G17KT 290V350 10SM CLR M01/M11 A2992 RMK AO2 PK WND
                 30027/2025 SLP132 T10061111 53030 =
2018-12-18 14:53 METAR KEWB 181953Z 33011G25KT 10SM CLR 00/M11 A2988 RMK AO2 PK WND 30030/1934
                 SLP120 T00001106 =
2018-12-18 13:53 METAR KEWB 181853Z 31009G20KT 10SM CLR 01/M11 A2985 RMK AO2 SLP109 T00061106 =
2018-12-18 12:53 METAR KEWB 181753Z 32009G22KT 290V350 10SM CLR 00/M11 A2983 RMK AO2 PK WND
                 01028/1743 SLP102 T00001106 10000 21039 52007 =
2018-12-18 11:53 METAR KEWB 181653Z 33008G23KT 10SM CLR M01/M11 A2982 RMK AO2 PK WND 29028/1639
                 SLP099 T10061111 =
2018-12-18 10:53 METAR KEWB 181553Z 31017G24KT 10SM CLR M02/M11 A2982 RMK AO2 PK WND 32031/1456
                 SLP097 T10171111 =
2018-12-18 09:53 METAR KEWB 181453Z 32013G27KT 10SM CLR M02/M12 A2981 RMK AO2 PK WND 29033/1424
                 SLP094 T10221117 51026 =
2018-12-18 08:53 METAR KEWB 181353Z 31013G26KT 10SM CLR M03/M12 A2979 RMK AO2 PK WND 33026/1350
                 SLP088 T10331117 =
2018-12-18 07:53 METAR KEWB 181253Z 31012G27KT 10SM CLR M03/M12 A2976 RMK AO2 PK WND 29027/1250
                 SLP078 T10331117 =
2018-12-18 06:53 METAR KEWB 181153Z 31013G25KT 280V350 10SM SCT042 M04/M11 A2973 RMK AO2 PK WND
                 30031/1142 SLP069 60005 70005 T10391106 10017 21039 51038 =
2018-12-18 05:53 METAR KEWB 181053Z AUTO 33010G22KT 10SM BKN044 M03/M11 A2970 RMK AO2 SLP059
                 T10281106 =
2018-12-18 04:53 METAR KEWB 180953Z AUTO 32015G27KT 280V350 10SM SCT039 BKN046 OVC070 M02/M08
                 A2966 RMK AO2 PK WND 30031/0906 SLP043 T10171083 =
2018-12-18 03:53 METAR KEWB 180853Z AUTO 29015G29KT 10SM BKN048 BKN110 M01/M07 A2962 RMK AO2 PK
                 WND 28029/0836 SLP030 60005 T10061072 53017 =
2018-12-18 02:53 METAR KEWB 180753Z AUTO 30021G29KT 10SM OVC055 01/M06 A2960 RMK AO2 PK WND
                 31029/0752 SNE00 SLP022 P0000 T00061061 =
2018-12-18 02:05 METAR KEWB 180705Z AUTO 28013G19KT 9SM SCT024 SCT039 01/M01 A2959 RMK AO2 SNE00
                 P0000 T00061006 =
2018-12-18 01:53 METAR KEWB 180653Z AUTO 28011G22KT 4SM R05/3500VP6000FT -SN BR BKN027 00/M01
                 A2958 RMK AO2 PK WND 30029/0642 SLP018 P0005 T00001011 =
2018-12-18 01:50 METAR KEWB 180650Z AUTO 29013G29KT 1SM R05/1800VP6000FT -SN BR BKN025 OVC035
                 00/M01 A2958 RMK AO2 PK WND 30029/0642 P0005 =
2018-12-18 01:45 METAR KEWB 180645Z AUTO 30010G29KT 1/2SM R05/1800V4000FT SN FG BKN011 BKN026
                 OVC033 00/M01 A2958 RMK AO2 PK WND 30029/0642 P0004 T00001006 =
2018-12-18 01:41 METAR KEWB 180641Z AUTO 30017G28KT 1/2SM R05/1800VP6000FT SN FG BKN007 BKN011
                 OVC034 00/00 A2959 RMK AO2 PK WND 29028/0641 P0004 T00000000 =
2018-12-18 01:38 METAR KEWB 180638Z AUTO 30014G24KT 3/4SM R05/2200VP6000FT -SN BR SCT007 BKN028
                 OVC034 01/00 A2959 RMK AO2 P0003 T00060000 =
2018-12-18 01:35 METAR KEWB 180635Z AUTO 32014G21KT 280V360 1 3/4SM R05/4500VP6000FT -SN BR
                 SCT010 BKN028 OVC034 01/01 A2958 RMK AO2 P0002 T00060006 =
2018-12-18 01:07 METAR KEWB 180607Z AUTO 31006KT 3SM -SN BR BKN024 BKN032 OVC075 01/01 A2957 RMK
                 AO2 P0001 T00110006 =

Support USWX by starting your Amazon purchase here.